Terminal Aerodrome Forecast
Issued by NWS Sioux Falls, SD

Home | Current Version | Previous Version | Graphics & Text | Print | Product List | Glossary On
Versions: 1 2 3 4 5 6 7 8 9 10 11 12 13 14 15 16 17 18 19 20 21 22
000
FTUS43 KFSD 011237 AAB
TAFSUX
TAF AMD
KSUX 011237Z 0113/0212 15003KT 4SM BR SCT002
      TEMPO 0113/0114 2SM BR BKN004
     FM011400 20009KT P6SM SCT120 SCT250
     FM012000 23013G20KT P6SM SCT050 SCT120
     FM012300 22012KT 6SM TSRA BKN040CB
     FM020200 17007KT P6SM SCT100 BKN250=

USA.gov is the U.S. government's official web portal to all federal, state and local government web resources and services.